createdAt,value
2018-07-15T00:01:35.999Z,87.42
2018-07-15T00:04:04.321Z,87.54
2018-07-15T00:06:32.634Z,87.64
2018-07-15T00:09:00.961Z,87.85
2018-07-15T00:11:29.303Z,87.57
2018-07-15T00:13:57.612Z,87.55
2018-07-15T00:16:25.367Z,87.70
2018-07-15T00:18:54.267Z,87.55
2018-07-15T00:21:22.588Z,87.63
2018-07-15T00:23:50.354Z,87.67
2018-07-15T00:26:19.267Z,87.60
2018-07-15T00:28:47.580Z,87.80
2018-07-15T00:31:15.904Z,87.81
2018-07-15T00:33:44.229Z,87.75
2018-07-15T00:36:11.967Z,88.04
2018-07-15T00:38:40.865Z,88.14
2018-07-15T00:41:09.174Z,87.99
2018-07-15T00:43:36.917Z,88.19
2018-07-15T00:46:05.816Z,88.15
2018-07-15T00:48:33.557Z,87.90
2018-07-15T00:51:02.208Z,88.06
2018-07-15T00:53:30.755Z,88.15
2018-07-15T00:55:59.078Z,88.21
2018-07-15T00:58:27.399Z,88.26
2018-07-15T01:00:55.737Z,88.24
2018-07-15T01:03:24.052Z,88.17
2018-07-15T01:05:52.371Z,88.14
2018-07-15T01:08:20.685Z,88.20
2018-07-15T01:10:49.009Z,88.29
2018-07-15T01:13:17.337Z,88.38
2018-07-15T01:15:45.082Z,88.37
2018-07-15T01:18:13.999Z,88.54
2018-07-15T01:20:42.318Z,88.45
2018-07-15T01:23:10.635Z,88.50
2018-07-15T01:25:38.388Z,88.60
2018-07-15T01:28:07.292Z,88.60
2018-07-15T01:30:35.597Z,88.35
2018-07-15T01:33:03.346Z,88.29
2018-07-15T01:35:32.254Z,88.50
2018-07-15T01:38:00.568Z,88.41
2018-07-15T01:40:28.897Z,88.31
2018-07-15T01:42:57.225Z,88.45
2018-07-15T01:45:25.555Z,88.48
2018-07-15T01:47:53.294Z,88.51
2018-07-15T01:50:22.196Z,88.51
2018-07-15T01:52:50.523Z,88.61
2018-07-15T01:55:18.280Z,88.64
2018-07-15T01:57:47.191Z,88.68
2018-07-15T02:00:15.521Z,88.63
2018-07-15T02:02:43.903Z,88.55
2018-07-15T02:05:12.213Z,88.36
2018-07-15T02:07:40.533Z,88.63
2018-07-15T02:10:08.780Z,88.38
2018-07-15T02:12:36.599Z,88.31
2018-07-15T02:15:05.494Z,88.34
2018-07-15T02:17:33.826Z,88.31
2018-07-15T02:20:01.567Z,88.28
2018-07-15T02:22:30.467Z,88.09
2018-07-15T02:24:58.789Z,87.85
2018-07-15T02:27:26.529Z,88.09
2018-07-15T02:29:54.846Z,88.50
2018-07-15T02:32:23.167Z,88.59
2018-07-15T02:34:51.492Z,88.58
2018-07-15T02:37:20.392Z,88.72
2018-07-15T02:39:48.715Z,88.82
2018-07-15T02:42:17.041Z,88.98
2018-07-15T02:44:44.783Z,89.16
2018-07-15T02:47:13.689Z,88.93
2018-07-15T02:49:42.011Z,88.99
2018-07-15T02:52:09.751Z,89.02
2018-07-15T02:54:38.085Z,89.03
2018-07-15T02:57:06.396Z,88.92
2018-07-15T02:59:35.291Z,88.87
2018-07-15T03:02:03.602Z,88.85
2018-07-15T03:04:31.975Z,88.78
2018-07-15T03:07:00.288Z,88.88
2018-07-15T03:09:28.623Z,88.78
2018-07-15T03:11:56.942Z,88.76
2018-07-15T03:14:25.271Z,88.51
2018-07-15T03:16:53.591Z,88.39
2018-07-15T03:19:21.902Z,88.30
2018-07-15T03:21:50.225Z,88.44
2018-07-15T03:24:18.547Z,88.03
2018-07-15T03:26:46.869Z,87.83
2018-07-15T03:29:15.192Z,88.15
2018-07-15T03:31:43.505Z,88.33
2018-07-15T03:34:11.836Z,88.42
2018-07-15T03:36:40.152Z,88.41
2018-07-15T03:39:08.487Z,88.23
2018-07-15T03:41:36.812Z,88.10
2018-07-15T03:44:04.719Z,87.73
2018-07-15T03:46:33.454Z,87.71
2018-07-15T03:49:01.186Z,87.86
2018-07-15T03:51:30.096Z,88.15
2018-07-15T03:53:58.416Z,88.14
2018-07-15T03:56:26.749Z,88.14
2018-07-15T03:58:55.062Z,88.31
2018-07-15T04:01:23.374Z,88.20
2018-07-15T04:03:51.698Z,87.92
2018-07-15T04:06:20.052Z,87.77
2018-07-15T04:08:47.925Z,87.82
2018-07-15T04:11:16.678Z,87.78
2018-07-15T04:13:45.004Z,87.67
2018-07-15T04:16:12.743Z,87.65
2018-07-15T04:18:41.062Z,87.71
2018-07-15T04:21:09.960Z,87.50
2018-07-15T04:23:38.289Z,86.99
2018-07-15T04:26:06.300Z,86.27
2018-07-15T04:28:34.357Z,86.26
2018-07-15T04:31:02.818Z,86.30
2018-07-15T04:33:31.084Z,86.68
2018-07-15T04:35:59.309Z,86.65
2018-07-15T04:38:28.206Z,86.69
2018-07-15T04:40:56.538Z,86.58
2018-07-15T04:43:24.859Z,86.53
2018-07-15T04:45:53.177Z,86.14
2018-07-15T04:48:20.930Z,85.76
2018-07-15T04:50:49.839Z,85.62
2018-07-15T04:53:17.570Z,85.70
2018-07-15T04:55:46.461Z,85.42
2018-07-15T04:58:14.800Z,85.30
2018-07-15T05:00:43.119Z,85.39
2018-07-15T05:03:11.442Z,85.27
2018-07-15T05:05:39.766Z,84.88
2018-07-15T05:08:07.542Z,84.82
2018-07-15T05:10:36.438Z,84.86
2018-07-15T05:13:04.771Z,84.61
2018-07-15T05:15:33.072Z,84.54
2018-07-15T05:18:01.405Z,84.20
2018-07-15T05:20:29.136Z,84.02
2018-07-15T05:22:58.037Z,83.84
2018-07-15T05:25:26.369Z,83.59
2018-07-15T05:27:54.093Z,83.35
2018-07-15T05:30:22.990Z,82.99
2018-07-15T05:32:51.309Z,82.87
2018-07-15T05:35:19.054Z,82.52
2018-07-15T05:37:47.956Z,82.29
2018-07-15T05:40:16.290Z,81.88
2018-07-15T05:42:44.032Z,81.37
2018-07-15T05:45:12.938Z,80.89
2018-07-15T05:47:41.257Z,80.38
2018-07-15T05:50:09.586Z,80.24
2018-07-15T05:52:37.918Z,79.68
2018-07-15T05:55:06.238Z,78.76
2018-07-15T05:57:34.005Z,79.23
2018-07-15T06:00:02.898Z,78.94
2018-07-15T06:02:31.232Z,78.28
2018-07-15T06:04:58.973Z,78.86
2018-07-15T06:07:27.876Z,78.53
2018-07-15T06:09:56.240Z,78.32
2018-07-15T06:12:30.353Z,78.11
2018-07-15T06:14:58.693Z,78.03
2018-07-15T06:17:27.051Z,78.00
2018-07-15T06:19:55.342Z,78.36
2018-07-15T06:22:23.093Z,78.42
2018-07-15T06:24:51.414Z,78.27
2018-07-15T06:27:20.318Z,78.54
2018-07-15T06:29:48.769Z,78.76
2018-07-15T06:32:17.122Z,79.14
2018-07-15T06:34:45.442Z,78.92
2018-07-15T06:37:14.353Z,78.49
2018-07-15T06:39:42.681Z,78.16
2018-07-15T06:42:11.014Z,78.07
2018-07-15T06:44:38.763Z,77.85
2018-07-15T06:47:07.665Z,77.31
2018-07-15T06:49:35.980Z,77.37
2018-07-15T06:52:04.301Z,76.96
2018-07-15T06:54:32.625Z,77.12
2018-07-15T06:57:00.976Z,76.94
2018-07-15T06:59:29.785Z,76.66
2018-07-15T07:01:58.109Z,76.42
2018-07-15T07:04:26.432Z,75.62
2018-07-15T07:06:54.748Z,74.84
2018-07-15T07:09:22.488Z,75.03
2018-07-15T07:11:51.417Z,74.90
2018-07-15T07:14:19.847Z,74.87
2018-07-15T07:16:48.103Z,73.56
2018-07-15T07:19:15.884Z,73.65
2018-07-15T07:21:44.800Z,74.08
2018-07-15T07:24:12.512Z,72.92
2018-07-15T07:26:41.437Z,73.00
2018-07-15T07:29:09.763Z,72.79
2018-07-15T07:31:38.085Z,72.60
2018-07-15T07:34:06.433Z,72.18
2018-07-15T07:36:34.752Z,71.91
2018-07-15T07:39:03.081Z,71.50
2018-07-15T07:41:30.835Z,70.57
2018-07-15T07:43:59.740Z,69.30
2018-07-15T07:46:28.059Z,69.18
2018-07-15T07:49:04.985Z,69.25
2018-07-15T07:51:30.121Z,69.33
2018-07-15T07:53:58.484Z,69.21
2018-07-15T07:56:26.808Z,69.36
2018-07-15T07:58:55.138Z,68.41
2018-07-15T08:01:23.455Z,68.44
2018-07-15T08:03:51.781Z,68.46
2018-07-15T08:06:20.102Z,68.00
2018-07-15T08:08:47.852Z,67.58
2018-07-15T08:11:16.517Z,66.85
2018-07-15T08:13:45.108Z,67.44
2018-07-15T08:16:13.438Z,67.72
2018-07-15T08:18:41.770Z,66.99
2018-07-15T08:21:10.098Z,66.11
2018-07-15T08:23:38.561Z,66.74
2018-07-15T08:26:13.417Z,65.90
2018-07-15T08:28:42.199Z,66.26
2018-07-15T08:31:11.036Z,66.28
2018-07-15T08:33:39.556Z,65.96
2018-07-15T08:36:07.292Z,64.64
2018-07-15T08:38:36.348Z,64.57
2018-07-15T08:41:04.678Z,64.11
2018-07-15T08:43:33.008Z,65.09
2018-07-15T08:46:02.345Z,64.15
2018-07-15T08:48:53.985Z,63.44
2018-07-15T08:54:09.472Z,63.53
2018-07-15T08:56:38.648Z,63.39
2018-07-15T08:59:06.040Z,62.84
2018-07-15T09:01:49.847Z,62.17
2018-07-15T09:04:03.942Z,62.75
2018-07-15T09:06:31.745Z,62.94
2018-07-15T09:09:00.686Z,62.55
2018-07-15T09:11:28.436Z,62.15
2018-07-15T09:13:57.581Z,62.03
2018-07-15T09:16:25.423Z,61.96
2018-07-15T09:18:53.811Z,61.70
2018-07-15T09:21:22.748Z,61.46
2018-07-15T09:23:51.104Z,61.75
2018-07-15T09:26:19.450Z,61.99
2018-07-15T09:28:49.957Z,61.78
2018-07-15T09:31:19.213Z,61.50
2018-07-15T09:33:47.693Z,61.17
2018-07-15T09:36:17.203Z,60.73
2018-07-15T09:38:45.426Z,60.50
2018-07-15T09:41:14.809Z,60.62
2018-07-15T09:43:42.685Z,60.43
2018-07-15T09:46:11.011Z,60.50
2018-07-15T09:48:39.530Z,60.38
2018-07-15T09:51:07.813Z,60.31
2018-07-15T09:53:36.149Z,60.25
2018-07-15T09:56:03.906Z,59.81
2018-07-15T09:58:32.814Z,59.81
2018-07-15T10:01:01.164Z,60.20
2018-07-15T10:03:29.499Z,60.14
2018-07-15T10:05:57.253Z,60.10
2018-07-15T10:08:26.175Z,59.75
2018-07-15T10:10:53.986Z,60.08
2018-07-15T10:13:22.862Z,59.81
2018-07-15T10:15:51.293Z,59.34
2018-07-15T10:18:19.043Z,59.07
2018-07-15T10:20:47.380Z,59.53
2018-07-15T10:23:15.710Z,59.60
2018-07-15T10:25:44.047Z,59.52
2018-07-15T10:28:12.948Z,59.26
2018-07-15T10:30:41.297Z,59.48
2018-07-15T10:33:09.645Z,59.33
2018-07-15T10:35:37.948Z,59.09
2018-07-15T10:38:06.923Z,58.60
2018-07-15T10:40:34.960Z,58.89
2018-07-15T10:43:03.278Z,58.74
2018-07-15T10:45:31.616Z,59.06
2018-07-15T10:47:59.936Z,58.71
2018-07-15T10:50:27.680Z,58.27
2018-07-15T10:52:56.606Z,58.41
2018-07-15T10:55:24.322Z,58.56
2018-07-15T10:57:53.242Z,58.26
2018-07-15T11:00:21.026Z,58.79
2018-07-15T11:02:49.922Z,58.55
2018-07-15T11:05:25.398Z,57.68
2018-07-15T11:07:53.744Z,57.56
2018-07-15T11:10:21.501Z,57.80
2018-07-15T11:12:49.935Z,57.61
2018-07-15T11:15:18.379Z,57.25
2018-07-15T11:17:47.097Z,57.24
2018-07-15T11:20:15.410Z,57.41
2018-07-15T11:22:43.733Z,55.48
2018-07-15T11:25:12.055Z,55.10
2018-07-15T11:27:40.377Z,55.15
2018-07-15T11:30:08.698Z,54.93
2018-07-15T11:32:37.022Z,54.29
2018-07-15T11:35:04.925Z,54.54
2018-07-15T11:37:33.117Z,54.10
2018-07-15T11:40:02.026Z,53.17
2018-07-15T11:42:30.436Z,52.87
2018-07-15T11:44:58.197Z,52.99
2018-07-15T11:47:27.154Z,52.61
2018-07-15T11:50:01.703Z,52.39
2018-07-15T11:52:30.062Z,51.62
2018-07-15T11:54:58.374Z,51.39
2018-07-15T11:57:27.013Z,51.33
2018-07-15T11:59:55.371Z,51.33
2018-07-15T12:02:24.047Z,51.30
2018-07-15T12:04:52.163Z,50.32
2018-07-15T12:07:20.539Z,50.03
2018-07-15T12:09:54.530Z,49.77
2018-07-15T12:12:22.948Z,49.38
2018-07-15T12:14:51.251Z,49.38
2018-07-15T12:17:18.999Z,49.62
2018-07-15T12:19:48.666Z,48.53
2018-07-15T12:22:16.993Z,48.01
2018-07-15T12:24:46.323Z,48.10
2018-07-15T12:27:14.926Z,48.12
2018-07-15T12:29:43.560Z,47.14
2018-07-15T12:32:14.816Z,47.50
2018-07-15T12:37:17.594Z,47.90
2018-07-15T12:39:45.933Z,47.56
2018-07-15T12:42:13.773Z,47.76
2018-07-15T12:44:42.510Z,47.72
2018-07-15T12:47:11.410Z,47.67
2018-07-15T12:49:39.204Z,47.46
2018-07-15T12:52:08.200Z,47.01
2018-07-15T12:54:36.502Z,47.27
2018-07-15T12:59:53.399Z,46.83
2018-07-15T13:02:21.304Z,46.21
2018-07-15T13:04:50.037Z,45.93
2018-07-15T13:07:19.582Z,45.57
2018-07-15T13:09:47.698Z,45.26
2018-07-15T13:12:16.243Z,45.35
2018-07-15T13:14:44.644Z,45.25
2018-07-15T13:17:12.954Z,45.15
2018-07-15T13:19:41.275Z,44.91
2018-07-15T13:22:09.905Z,44.68
2018-07-15T13:24:38.502Z,44.44
2018-07-15T13:27:06.889Z,44.11
2018-07-15T13:29:35.073Z,44.14
2018-07-15T13:32:03.344Z,44.15
2018-07-15T13:34:31.675Z,43.51
2018-07-15T13:36:59.997Z,43.34
2018-07-15T13:39:28.322Z,43.29
2018-07-15T13:41:56.182Z,42.87
2018-07-15T13:44:25.024Z,42.83
2018-07-15T13:46:53.355Z,42.20
2018-07-15T13:49:21.396Z,42.10
2018-07-15T13:51:50.013Z,42.13
2018-07-15T13:54:17.934Z,41.88
2018-07-15T13:56:46.660Z,42.07
2018-07-15T13:59:14.989Z,41.88
2018-07-15T14:01:43.355Z,41.28
2018-07-15T14:04:11.170Z,40.76
2018-07-15T14:06:40.035Z,40.81
2018-07-15T14:09:09.247Z,41.19
2018-07-15T14:11:37.542Z,40.85
2018-07-15T14:14:05.388Z,40.58
2018-07-15T14:16:43.198Z,40.57
2018-07-15T14:19:11.592Z,40.01
2018-07-15T14:21:39.979Z,39.96
2018-07-15T14:24:08.320Z,39.37
2018-07-15T14:26:37.039Z,38.93
2018-07-15T14:31:38.705Z,39.09
2018-07-15T14:34:08.395Z,39.05
2018-07-15T14:36:36.747Z,39.20
2018-07-15T14:39:05.195Z,38.48
2018-07-15T14:41:34.323Z,38.72
2018-07-15T14:44:02.572Z,39.01
2018-07-15T14:46:31.015Z,39.07
2018-07-15T14:48:59.329Z,38.82
2018-07-15T14:51:27.656Z,38.00
2018-07-15T14:53:55.638Z,38.15
2018-07-15T14:56:24.311Z,38.20
2018-07-15T14:58:52.777Z,37.53
2018-07-15T15:01:21.203Z,37.65
2018-07-15T15:03:49.311Z,37.74
2018-07-15T15:06:17.284Z,37.81
2018-07-15T15:08:46.691Z,38.14
2018-07-15T15:11:15.007Z,38.13
2018-07-15T15:13:43.911Z,38.46
2018-07-15T15:16:12.303Z,38.30
2018-07-15T15:18:40.571Z,37.98
2018-07-15T15:21:08.879Z,37.64
2018-07-15T15:23:37.230Z,38.08
2018-07-15T15:26:05.561Z,37.78
2018-07-15T15:28:33.895Z,37.93
2018-07-15T15:31:02.226Z,37.13
2018-07-15T15:33:30.531Z,36.98
2018-07-15T15:35:58.867Z,36.88
2018-07-15T15:38:26.630Z,36.64
2018-07-15T15:40:55.536Z,36.38
2018-07-15T15:46:03.303Z,36.43
2018-07-15T15:48:32.203Z,36.22
2018-07-15T15:51:00.572Z,36.96
2018-07-15T15:53:28.336Z,37.39
2018-07-15T15:55:57.249Z,37.41
2018-07-15T15:58:25.580Z,37.02
2018-07-15T16:00:53.899Z,37.51
2018-07-15T16:03:22.278Z,37.61
2018-07-15T16:05:50.605Z,37.55
2018-07-15T16:08:18.367Z,38.01
2018-07-15T16:10:46.691Z,38.30
2018-07-15T16:13:15.587Z,38.15
2018-07-15T16:15:43.430Z,38.14
2018-07-15T16:18:12.251Z,38.33
2018-07-15T16:20:40.573Z,38.30
2018-07-15T16:23:08.919Z,38.66
2018-07-15T16:25:36.826Z,38.69
2018-07-15T16:28:05.711Z,38.74
2018-07-15T16:30:34.033Z,39.04
2018-07-15T16:33:02.367Z,39.59
2018-07-15T16:35:30.898Z,39.85
2018-07-15T16:37:59.025Z,40.07
2018-07-15T16:40:27.365Z,40.44
2018-07-15T16:42:55.703Z,40.44
2018-07-15T16:45:24.031Z,40.28
2018-07-15T16:47:52.363Z,40.46
2018-07-15T16:50:20.118Z,40.26
2018-07-15T16:52:50.500Z,40.23
2018-07-15T16:55:18.244Z,40.93
2018-07-15T16:57:46.585Z,41.08
2018-07-15T17:00:27.621Z,41.01
2018-07-15T17:02:56.867Z,42.41
2018-07-15T17:05:26.555Z,44.06
2018-07-15T17:07:54.190Z,45.51
2018-07-15T17:10:22.519Z,47.01
2018-07-15T17:12:51.429Z,48.44
2018-07-15T17:15:19.915Z,49.66
2018-07-15T17:17:48.211Z,50.39
2018-07-15T17:20:17.487Z,51.07
2018-07-15T17:22:45.288Z,51.83
2018-07-15T17:25:17.931Z,52.07
2018-07-15T17:27:48.050Z,52.38
2018-07-15T17:30:16.664Z,52.83
2018-07-15T17:32:45.686Z,53.13
2018-07-15T17:35:14.440Z,53.43
2018-07-15T17:37:44.317Z,53.65
2018-07-15T17:40:11.397Z,53.86
2018-07-15T17:42:39.922Z,54.10
2018-07-15T17:45:10.258Z,54.83
2018-07-15T17:47:40.426Z,55.40
2018-07-15T17:50:08.819Z,55.66
2018-07-15T17:52:41.251Z,55.93
2018-07-15T17:57:49.340Z,56.86
2018-07-15T18:00:25.165Z,57.06
2018-07-15T18:02:54.244Z,57.42
2018-07-15T18:05:22.599Z,57.70
2018-07-15T18:07:51.944Z,57.99
2018-07-15T18:10:21.330Z,58.49
2018-07-15T18:12:49.363Z,58.69
2018-07-15T18:15:18.938Z,58.81
2018-07-15T18:17:46.739Z,59.42
2018-07-15T18:20:15.222Z,60.12
2018-07-15T18:22:44.431Z,60.55
2018-07-15T18:25:21.251Z,60.71
2018-07-15T18:27:49.677Z,60.94
2018-07-15T18:30:17.999Z,60.90
2018-07-15T18:32:46.333Z,60.98
2018-07-15T18:35:14.073Z,61.21
2018-07-15T18:37:43.143Z,61.67
2018-07-15T18:40:13.115Z,61.76
2018-07-15T18:42:42.022Z,62.08
2018-07-15T18:45:13.803Z,62.35
2018-07-15T18:47:42.145Z,62.73
2018-07-15T18:50:11.409Z,63.00
2018-07-15T18:52:39.163Z,63.04
2018-07-15T18:55:08.772Z,63.19
2018-07-15T18:57:37.139Z,63.29
2018-07-15T19:00:06.441Z,63.64
2018-07-15T19:02:35.318Z,63.92
2018-07-15T19:05:03.634Z,64.59
2018-07-15T19:07:32.310Z,65.19
2018-07-15T19:10:01.052Z,65.67
2018-07-15T19:12:29.454Z,65.88
2018-07-15T19:14:58.747Z,66.08
2018-07-15T19:17:27.120Z,66.66
2018-07-15T19:19:54.861Z,66.98
2018-07-15T19:22:23.945Z,67.13
2018-07-15T19:24:52.422Z,67.33
2018-07-15T19:27:20.833Z,68.14
2018-07-15T19:29:49.163Z,68.16
2018-07-15T19:32:17.598Z,68.21
2018-07-15T19:34:49.428Z,68.86
2018-07-15T19:37:17.233Z,68.92
2018-07-15T19:39:46.182Z,69.01
2018-07-15T19:42:14.522Z,69.16
2018-07-15T19:44:42.920Z,69.28
2018-07-15T19:47:11.265Z,70.06
2018-07-15T19:49:39.744Z,70.12
2018-07-15T19:52:08.302Z,70.34
2018-07-15T19:54:36.416Z,70.75
2018-07-15T19:57:09.151Z,71.04
2018-07-15T19:59:37.707Z,71.04
2018-07-15T20:02:06.079Z,71.50
2018-07-15T20:04:34.408Z,71.34
2018-07-15T20:07:02.769Z,71.63
2018-07-15T20:09:31.266Z,71.75
2018-07-15T20:12:05.312Z,72.31
2018-07-15T20:14:33.647Z,72.49
2018-07-15T20:17:02.250Z,72.93
2018-07-15T20:19:30.594Z,73.31
2018-07-15T20:21:59.087Z,73.32
2018-07-15T20:24:27.412Z,73.52
2018-07-15T20:26:55.850Z,73.63
2018-07-15T20:29:24.290Z,73.41
2018-07-15T20:31:52.709Z,73.76
2018-07-15T20:34:21.061Z,73.78
2018-07-15T20:36:48.815Z,73.41
2018-07-15T20:39:17.979Z,73.60
2018-07-15T20:41:46.163Z,73.51
2018-07-15T20:44:14.518Z,73.62
2018-07-15T20:46:42.951Z,73.95
2018-07-15T20:49:12.201Z,75.59
2018-07-15T20:51:40.525Z,75.31
2018-07-15T20:54:08.979Z,76.73
2018-07-15T20:56:36.752Z,77.11
2018-07-15T20:59:05.666Z,77.26
2018-07-15T21:01:33.983Z,76.96
2018-07-15T21:04:02.313Z,76.91
2018-07-15T21:06:30.634Z,76.46
2018-07-15T21:08:58.369Z,76.09
2018-07-15T21:11:27.507Z,76.33
2018-07-15T21:13:55.615Z,76.94
2018-07-15T21:16:23.947Z,77.60
2018-07-15T21:18:53.169Z,77.91
2018-07-15T21:21:21.689Z,77.69
2018-07-15T21:23:51.851Z,77.99
2018-07-15T21:26:20.188Z,78.72
2018-07-15T21:28:48.509Z,78.53
2018-07-15T21:31:16.304Z,78.72
2018-07-15T21:33:46.115Z,78.30
2018-07-15T21:36:14.432Z,78.39
2018-07-15T21:38:43.093Z,78.91
2018-07-15T21:41:11.506Z,79.07
2018-07-15T21:43:40.398Z,79.04
2018-07-15T21:46:08.144Z,79.01
2018-07-15T21:48:37.111Z,78.87
2018-07-15T21:51:05.442Z,79.00
2018-07-15T21:53:33.759Z,79.51
2018-07-15T21:56:02.086Z,79.49
2018-07-15T21:58:30.151Z,79.58
2018-07-15T22:00:58.740Z,79.84
2018-07-15T22:03:27.082Z,79.53
2018-07-15T22:05:55.398Z,79.55
2018-07-15T22:08:29.765Z,79.52
2018-07-15T22:10:58.702Z,79.33
2018-07-15T22:13:27.033Z,79.42
2018-07-15T22:15:55.363Z,79.73
2018-07-15T22:18:23.106Z,79.65
2018-07-15T22:20:51.507Z,79.86
2018-07-15T22:23:20.418Z,79.67
2018-07-15T22:25:48.940Z,79.85
2018-07-15T22:28:17.844Z,80.04
2018-07-15T22:30:46.757Z,80.08
2018-07-15T22:33:15.094Z,80.51
2018-07-15T22:35:43.439Z,81.30
2018-07-15T22:38:11.335Z,81.90
2018-07-15T22:40:40.097Z,83.32
2018-07-15T22:43:08.431Z,83.80
2018-07-15T22:45:36.174Z,83.64
2018-07-15T22:48:05.325Z,84.09
2018-07-15T22:50:34.232Z,84.85
2018-07-15T22:53:02.561Z,84.94
2018-07-15T22:55:30.297Z,85.02
2018-07-15T22:57:58.625Z,85.17
2018-07-15T23:00:27.533Z,85.70
2018-07-15T23:02:55.277Z,86.52
2018-07-15T23:05:35.390Z,87.23
2018-07-15T23:08:03.767Z,87.15
2018-07-15T23:10:32.499Z,87.54
2018-07-15T23:13:00.964Z,87.62
2018-07-15T23:15:29.290Z,87.75
2018-07-15T23:17:58.382Z,87.70
2018-07-15T23:20:26.733Z,87.50
2018-07-15T23:22:55.066Z,86.89
2018-07-15T23:25:24.363Z,87.22
2018-07-15T23:27:52.060Z,87.41
2018-07-15T23:30:20.651Z,87.82
2018-07-15T23:32:48.977Z,87.27
2018-07-15T23:35:16.729Z,87.13
2018-07-15T23:37:46.000Z,86.61
2018-07-15T23:40:14.342Z,86.44
2018-07-15T23:42:42.840Z,86.50
2018-07-15T23:45:10.868Z,86.66
2018-07-15T23:47:39.780Z,86.30
2018-07-15T23:50:07.758Z,86.43
2018-07-15T23:52:35.874Z,86.85
2018-07-15T23:55:04.795Z,86.87
2018-07-15T23:57:33.127Z,86.52
